createdAt,value
2023-05-26T00:02:15.043Z,85.11
2023-05-26T00:05:02.981Z,85.18
2023-05-26T00:07:51.006Z,85.41
2023-05-26T00:10:38.889Z,86.08
2023-05-26T00:13:26.708Z,86.10
2023-05-26T00:16:15.043Z,86.61
2023-05-26T00:19:02.838Z,86.52
2023-05-26T00:21:50.560Z,86.75
2023-05-26T00:24:38.457Z,86.33
2023-05-26T00:27:26.498Z,86.58
2023-05-26T00:30:14.377Z,86.56
2023-05-26T00:33:02.740Z,86.81
2023-05-26T00:35:51.814Z,86.24
2023-05-26T00:38:39.559Z,86.01
2023-05-26T00:41:28.009Z,86.99
2023-05-26T00:44:16.028Z,87.32
2023-05-26T00:47:04.184Z,87.87
2023-05-26T00:49:53.414Z,88.02
2023-05-26T00:52:42.534Z,88.77
2023-05-26T00:55:31.404Z,88.44
2023-05-26T00:58:19.330Z,88.62
2023-05-26T01:01:07.184Z,87.97
2023-05-26T01:03:55.849Z,88.36
2023-05-26T01:06:45.990Z,88.03
2023-05-26T01:09:36.312Z,88.92
2023-05-26T01:12:39.994Z,89.48
2023-05-26T01:15:37.588Z,89.65
2023-05-26T01:18:59.238Z,89.87
2023-05-26T01:21:51.110Z,89.74
2023-05-26T01:25:10.836Z,90.05
2023-05-26T01:28:15.324Z,90.57
2023-05-26T01:31:03.537Z,90.72
2023-05-26T01:33:51.403Z,91.45
2023-05-26T01:36:39.256Z,92.05
2023-05-26T01:39:27.532Z,91.80
2023-05-26T01:42:34.266Z,91.71
2023-05-26T01:45:26.156Z,92.08
2023-05-26T01:48:18.179Z,92.30
2023-05-26T01:51:07.643Z,91.70
2023-05-26T01:54:01.944Z,92.62
2023-05-26T01:56:54.789Z,92.61
2023-05-26T01:59:42.734Z,93.26
2023-05-26T02:02:30.959Z,92.84
2023-05-26T02:05:19.111Z,92.64
2023-05-26T02:08:12.089Z,92.94
2023-05-26T02:10:59.979Z,93.66
2023-05-26T02:13:47.877Z,93.43
2023-05-26T02:16:36.135Z,94.01
2023-05-26T02:19:24.413Z,94.01
2023-05-26T02:22:14.084Z,93.93
2023-05-26T02:25:02.590Z,94.37
2023-05-26T02:27:51.462Z,94.77
2023-05-26T02:30:39.244Z,94.63
2023-05-26T02:33:27.870Z,95.25
2023-05-26T02:36:15.719Z,95.48
2023-05-26T02:39:03.657Z,95.08
2023-05-26T02:41:53.542Z,95.96
2023-05-26T02:44:41.331Z,95.61
2023-05-26T02:47:29.172Z,95.65
2023-05-26T02:50:18.783Z,96.01
2023-05-26T02:53:06.825Z,96.71
2023-05-26T02:55:54.820Z,96.66
2023-05-26T02:58:42.534Z,96.62
2023-05-26T03:01:30.731Z,96.59
2023-05-26T03:04:18.643Z,96.46
2023-05-26T03:07:09.100Z,96.62
2023-05-26T03:09:58.304Z,97.05
2023-05-26T03:12:46.185Z,97.07
2023-05-26T03:15:36.598Z,96.64
2023-05-26T03:18:28.347Z,96.55
2023-05-26T03:21:47.545Z,96.90
2023-05-26T03:24:26.265Z,97.55
2023-05-26T03:27:14.141Z,98.02
2023-05-26T03:30:02.004Z,98.01
2023-05-26T03:32:51.439Z,98.03
2023-05-26T03:35:39.774Z,97.73
2023-05-26T03:38:28.248Z,98.28
2023-05-26T03:41:18.861Z,98.36
2023-05-26T03:44:19.971Z,99.15
2023-05-26T03:47:10.479Z,99.40
2023-05-26T03:49:59.451Z,99.22
2023-05-26T03:52:49.316Z,98.93
2023-05-26T03:55:37.691Z,99.13
2023-05-26T03:58:26.358Z,98.63
2023-05-26T04:01:14.188Z,98.57
2023-05-26T04:04:01.978Z,98.80
2023-05-26T04:06:52.125Z,98.46
2023-05-26T04:09:40.094Z,98.44
2023-05-26T04:12:28.154Z,98.49
2023-05-26T04:15:16.015Z,98.42
2023-05-26T04:18:03.958Z,98.47
2023-05-26T04:20:57.406Z,98.68
2023-05-26T04:23:48.657Z,98.41
2023-05-26T04:26:36.711Z,98.95
2023-05-26T04:29:36.657Z,98.19
2023-05-26T04:32:43.788Z,98.32
2023-05-26T04:35:41.704Z,98.68
2023-05-26T04:38:29.460Z,98.56
2023-05-26T04:41:17.882Z,98.69
2023-05-26T04:44:06.826Z,98.21
2023-05-26T04:46:54.648Z,97.54
2023-05-26T04:49:43.557Z,97.13
2023-05-26T04:52:31.663Z,96.55
2023-05-26T04:55:19.780Z,96.13
2023-05-26T04:58:08.231Z,95.67
2023-05-26T05:00:57.567Z,95.19
2023-05-26T05:04:08.655Z,94.63
2023-05-26T05:07:00.556Z,94.98
2023-05-26T05:09:48.533Z,94.81
2023-05-26T05:12:36.885Z,94.59
2023-05-26T05:15:28.627Z,93.83
2023-05-26T05:18:16.908Z,94.69
2023-05-26T05:21:05.592Z,94.40
2023-05-26T05:23:54.292Z,95.01
2023-05-26T05:26:42.546Z,94.43
2023-05-26T05:29:31.056Z,93.93
2023-05-26T05:32:21.821Z,94.16
2023-05-26T05:35:11.732Z,94.19
2023-05-26T05:37:59.763Z,94.41
2023-05-26T05:40:49.300Z,93.90
2023-05-26T05:43:37.624Z,93.51
2023-05-26T05:46:27.320Z,92.05
2023-05-26T05:49:19.031Z,92.59
2023-05-26T05:52:09.807Z,92.03
2023-05-26T05:54:58.433Z,91.29
2023-05-26T05:57:46.289Z,91.50
2023-05-26T06:00:34.344Z,89.95
2023-05-26T06:03:22.358Z,90.46
2023-05-26T06:06:10.647Z,90.34
2023-05-26T06:09:01.154Z,89.53
2023-05-26T06:11:53.620Z,87.95
2023-05-26T06:14:42.105Z,86.68
2023-05-26T06:17:37.883Z,85.92
2023-05-26T06:20:26.552Z,85.78
2023-05-26T06:23:15.073Z,85.01
2023-05-26T06:26:05.708Z,84.77
2023-05-26T06:28:54.082Z,84.98
2023-05-26T06:31:42.058Z,84.19
2023-05-26T06:34:34.400Z,82.92
2023-05-26T06:37:22.364Z,82.51
2023-05-26T06:40:15.254Z,82.19
2023-05-26T06:43:06.852Z,81.90
2023-05-26T06:45:55.078Z,81.26
2023-05-26T06:48:43.961Z,81.29
2023-05-26T06:51:47.624Z,80.38
2023-05-26T06:54:35.590Z,79.45
2023-05-26T06:57:23.612Z,79.47
2023-05-26T07:00:12.657Z,78.67
2023-05-26T07:03:00.878Z,78.89
2023-05-26T07:05:57.435Z,78.38
2023-05-26T07:08:46.110Z,77.68
2023-05-26T07:11:42.218Z,76.60
2023-05-26T07:14:50.066Z,76.25
2023-05-26T07:17:38.367Z,76.22
2023-05-26T07:20:26.742Z,76.02
2023-05-26T07:23:16.288Z,76.10
2023-05-26T07:26:04.242Z,76.46
2023-05-26T07:28:53.550Z,72.89
2023-05-26T07:31:41.625Z,72.47
2023-05-26T07:34:29.645Z,72.64
2023-05-26T07:37:17.531Z,72.42
2023-05-26T07:40:06.785Z,72.46
2023-05-26T07:42:54.768Z,72.26
2023-05-26T07:46:03.630Z,70.44
2023-05-26T07:48:51.708Z,69.72
2023-05-26T07:51:45.369Z,70.12
2023-05-26T07:54:33.652Z,70.81
2023-05-26T07:57:29.877Z,70.02
2023-05-26T08:00:19.095Z,68.90
2023-05-26T08:03:10.464Z,69.45
2023-05-26T08:08:52.798Z,68.87
2023-05-26T08:11:40.875Z,67.45
2023-05-26T08:14:30.204Z,66.53
2023-05-26T08:17:18.566Z,67.56
2023-05-26T08:20:07.741Z,66.87
2023-05-26T08:22:59.763Z,67.08
2023-05-26T08:25:51.815Z,66.10
2023-05-26T08:28:42.584Z,67.17
2023-05-26T08:31:34.006Z,65.67
2023-05-26T08:34:27.839Z,65.44
2023-05-26T08:37:17.208Z,65.41
2023-05-26T08:40:10.769Z,64.97
2023-05-26T08:43:08.921Z,65.57
2023-05-26T08:46:02.815Z,65.02
2023-05-26T08:49:05.744Z,64.05
2023-05-26T08:52:14.128Z,64.12
2023-05-26T08:55:02.942Z,64.33
2023-05-26T08:57:51.208Z,62.77
2023-05-26T09:00:41.529Z,63.80
2023-05-26T09:03:38.635Z,63.94
2023-05-26T09:06:26.448Z,62.70
2023-05-26T09:09:15.550Z,62.51
2023-05-26T09:12:13.785Z,61.17
2023-05-26T09:15:01.657Z,62.79
2023-05-26T09:17:49.948Z,62.76
2023-05-26T09:20:47.352Z,61.26
2023-05-26T09:23:35.727Z,61.14
2023-05-26T09:26:36.127Z,61.19
2023-05-26T09:29:23.989Z,60.02
2023-05-26T09:32:17.217Z,59.05
2023-05-26T09:35:05.656Z,58.93
2023-05-26T09:37:55.764Z,58.02
2023-05-26T09:40:46.539Z,59.00
2023-05-26T09:43:35.252Z,57.99
2023-05-26T09:46:25.906Z,57.62
2023-05-26T09:49:18.172Z,58.83
2023-05-26T09:54:57.986Z,57.75
2023-05-26T09:57:49.138Z,56.04
2023-05-26T10:00:41.292Z,56.09
2023-05-26T10:03:29.947Z,56.27
2023-05-26T10:06:20.595Z,57.06
2023-05-26T10:09:11.045Z,55.73
2023-05-26T10:12:00.070Z,56.00
2023-05-26T10:14:48.066Z,55.95
2023-05-26T10:17:36.491Z,54.52
2023-05-26T10:20:24.645Z,54.23
2023-05-26T10:23:23.173Z,52.80
2023-05-26T10:26:27.641Z,53.26
2023-05-26T10:29:23.397Z,53.70
2023-05-26T10:32:46.641Z,51.73
2023-05-26T10:35:34.650Z,52.20
2023-05-26T10:38:37.385Z,52.73
2023-05-26T10:41:33.207Z,50.00
2023-05-26T10:45:16.771Z,49.73
2023-05-26T10:48:12.150Z,48.35
2023-05-26T10:51:00.284Z,49.81
2023-05-26T10:53:48.610Z,49.04
2023-05-26T10:56:42.883Z,49.38
2023-05-26T10:59:34.403Z,48.45
2023-05-26T11:02:22.848Z,48.29
2023-05-26T11:05:31.702Z,47.47
2023-05-26T11:08:23.687Z,45.86
2023-05-26T11:11:15.339Z,46.16
2023-05-26T11:14:13.542Z,47.85
2023-05-26T11:17:06.614Z,47.10
2023-05-26T11:19:59.656Z,46.70
2023-05-26T11:22:50.208Z,45.87
2023-05-26T11:25:48.851Z,46.85
2023-05-26T11:28:41.996Z,47.51
2023-05-26T11:31:30.463Z,45.02
2023-05-26T11:34:18.536Z,44.69
2023-05-26T11:37:09.318Z,45.42
2023-05-26T11:39:57.625Z,45.35
2023-05-26T11:42:54.671Z,45.74
2023-05-26T11:45:42.413Z,44.17
2023-05-26T11:48:40.317Z,43.05
2023-05-26T11:51:28.076Z,43.65
2023-05-26T11:54:17.184Z,43.71
2023-05-26T11:57:22.863Z,43.75
2023-05-26T12:00:18.953Z,42.15
2023-05-26T12:03:06.911Z,41.99
2023-05-26T12:06:14.951Z,42.52
2023-05-26T12:09:13.352Z,41.23
2023-05-26T12:12:03.258Z,41.30
2023-05-26T12:14:51.062Z,41.79
2023-05-26T12:17:38.962Z,42.49
2023-05-26T12:20:43.357Z,41.98
2023-05-26T12:23:32.710Z,41.85
2023-05-26T12:26:31.190Z,42.10
2023-05-26T12:29:20.243Z,41.56
2023-05-26T12:32:13.142Z,40.70
2023-05-26T12:35:01.162Z,41.80
2023-05-26T12:37:49.006Z,41.83
2023-05-26T12:40:36.849Z,41.00
2023-05-26T12:43:24.682Z,40.92
2023-05-26T12:46:12.601Z,41.72
2023-05-26T12:49:00.492Z,40.41
2023-05-26T12:51:48.689Z,41.02
2023-05-26T12:54:36.488Z,40.64
2023-05-26T12:57:24.266Z,40.90
2023-05-26T13:00:12.894Z,41.06
2023-05-26T13:03:01.588Z,39.97
2023-05-26T13:05:52.666Z,40.25
2023-05-26T13:08:41.563Z,40.34
2023-05-26T13:11:29.422Z,40.06
2023-05-26T13:14:18.421Z,39.16
2023-05-26T13:17:06.587Z,40.22
2023-05-26T13:19:56.362Z,40.00
2023-05-26T13:22:46.867Z,40.22
2023-05-26T13:25:34.716Z,40.84
2023-05-26T13:28:24.020Z,39.65
2023-05-26T13:31:11.840Z,39.42
2023-05-26T13:33:59.798Z,39.06
2023-05-26T13:36:47.772Z,38.34
2023-05-26T13:39:36.465Z,39.67
2023-05-26T13:42:24.233Z,38.73
2023-05-26T13:45:13.953Z,39.17
2023-05-26T13:48:01.935Z,37.50
2023-05-26T13:50:50.073Z,37.51
2023-05-26T13:53:38.799Z,37.73
2023-05-26T13:56:28.211Z,37.68
2023-05-26T13:59:16.104Z,37.92
2023-05-26T14:02:04.160Z,38.70
2023-05-26T14:04:52.597Z,38.12
2023-05-26T14:07:40.278Z,37.24
2023-05-26T14:10:31.213Z,37.83
2023-05-26T14:13:18.998Z,36.61
2023-05-26T14:16:06.724Z,37.87
2023-05-26T14:19:05.386Z,38.54
2023-05-26T14:22:10.918Z,37.46
2023-05-26T14:25:03.093Z,38.73
2023-05-26T14:27:52.032Z,37.95
2023-05-26T14:30:39.795Z,38.81
2023-05-26T14:33:27.657Z,38.42
2023-05-26T14:36:15.823Z,37.45
2023-05-26T14:39:07.446Z,37.74
2023-05-26T14:41:55.377Z,38.70
2023-05-26T14:44:43.132Z,38.67
2023-05-26T14:47:31.218Z,38.28
2023-05-26T14:50:21.639Z,38.37
2023-05-26T14:53:10.421Z,37.98
2023-05-26T14:56:01.388Z,38.28
2023-05-26T14:58:49.263Z,38.44
2023-05-26T15:01:39.652Z,37.59
2023-05-26T15:04:27.571Z,37.06
2023-05-26T15:07:15.447Z,36.97
2023-05-26T15:10:05.100Z,37.45
2023-05-26T15:12:53.514Z,38.72
2023-05-26T15:15:41.342Z,38.51
2023-05-26T15:18:29.256Z,38.29
2023-05-26T15:21:17.318Z,38.72
2023-05-26T15:24:06.951Z,39.17
2023-05-26T15:26:55.400Z,39.64
2023-05-26T15:29:45.027Z,38.82
2023-05-26T15:32:33.027Z,38.75
2023-05-26T15:35:21.986Z,38.09
2023-05-26T15:38:09.872Z,38.72
2023-05-26T15:40:58.304Z,39.32
2023-05-26T15:43:46.367Z,39.13
2023-05-26T15:46:34.253Z,38.90
2023-05-26T15:49:23.143Z,38.47
2023-05-26T15:52:11.019Z,38.38
2023-05-26T15:54:59.393Z,38.67
2023-05-26T15:57:47.297Z,38.75
2023-05-26T16:00:35.513Z,38.99
2023-05-26T16:03:24.115Z,38.48
2023-05-26T16:06:12.996Z,38.92
2023-05-26T16:09:00.886Z,39.05
2023-05-26T16:11:48.775Z,38.56
2023-05-26T16:14:37.197Z,37.73
2023-05-26T16:17:25.076Z,38.48
2023-05-26T16:20:22.765Z,38.31
2023-05-26T16:23:10.743Z,37.45
2023-05-26T16:26:01.231Z,38.44
2023-05-26T16:28:49.111Z,38.65
2023-05-26T16:31:37.074Z,38.21
2023-05-26T16:34:26.082Z,38.55
2023-05-26T16:37:13.911Z,37.42
2023-05-26T16:40:02.429Z,37.69
2023-05-26T16:42:50.305Z,38.06
2023-05-26T16:45:38.091Z,38.08
2023-05-26T16:48:25.893Z,38.11
2023-05-26T16:51:13.878Z,38.39
2023-05-26T16:54:01.737Z,38.38
2023-05-26T16:56:49.503Z,38.39
2023-05-26T16:59:37.471Z,37.61
2023-05-26T17:02:25.696Z,37.21
2023-05-26T17:05:13.858Z,36.77
2023-05-26T17:08:02.067Z,37.12
2023-05-26T17:10:50.098Z,36.84
2023-05-26T17:13:37.908Z,37.39
2023-05-26T17:16:25.833Z,37.46
2023-05-26T17:19:13.776Z,37.76
2023-05-26T17:22:01.769Z,37.88
2023-05-26T17:24:49.866Z,38.41
2023-05-26T17:27:37.634Z,38.85
2023-05-26T17:30:25.630Z,38.83
2023-05-26T17:33:13.541Z,38.33
2023-05-26T17:36:01.270Z,38.50
2023-05-26T17:38:54.747Z,38.90
2023-05-26T17:41:42.787Z,39.66
2023-05-26T17:44:30.665Z,40.23
2023-05-26T17:47:18.436Z,40.19
2023-05-26T17:50:06.906Z,41.05
2023-05-26T17:52:54.769Z,41.48
2023-05-26T17:55:43.770Z,41.70
2023-05-26T17:58:32.795Z,42.25
2023-05-26T18:01:23.034Z,42.49
2023-05-26T18:04:11.023Z,42.59
2023-05-26T18:06:59.130Z,43.11
2023-05-26T18:09:46.986Z,43.44
2023-05-26T18:12:34.710Z,44.03
2023-05-26T18:15:22.774Z,44.29
2023-05-26T18:18:10.953Z,44.77
2023-05-26T18:20:59.016Z,45.20
2023-05-26T18:23:47.064Z,45.32
2023-05-26T18:26:34.997Z,45.34
2023-05-26T18:29:23.423Z,45.43
2023-05-26T18:32:12.017Z,45.51
2023-05-26T18:35:00.107Z,45.95
2023-05-26T18:37:50.870Z,46.26
2023-05-26T18:40:38.695Z,46.85
2023-05-26T18:43:26.450Z,46.99
2023-05-26T18:46:14.296Z,47.60
2023-05-26T18:49:02.344Z,47.78
2023-05-26T18:51:50.118Z,48.10
2023-05-26T18:54:37.900Z,48.74
2023-05-26T18:57:25.940Z,48.77
2023-05-26T19:00:15.679Z,49.09
2023-05-26T19:03:04.069Z,49.49
2023-05-26T19:05:51.931Z,50.56
2023-05-26T19:08:39.671Z,51.20
2023-05-26T19:11:28.802Z,52.57
2023-05-26T19:14:16.666Z,52.86
2023-05-26T19:17:04.754Z,53.88
2023-05-26T19:19:54.164Z,54.74
2023-05-26T19:22:43.360Z,54.78
2023-05-26T19:25:31.170Z,56.04
2023-05-26T19:28:21.006Z,56.43
2023-05-26T19:31:08.746Z,56.70
2023-05-26T19:33:57.167Z,57.02
2023-05-26T19:36:44.999Z,57.43
2023-05-26T19:39:32.769Z,58.38
2023-05-26T19:42:20.995Z,58.49
2023-05-26T19:45:09.274Z,59.44
2023-05-26T19:47:57.121Z,59.59
2023-05-26T19:50:44.949Z,59.82
2023-05-26T19:53:33.479Z,60.38
2023-05-26T19:56:22.762Z,60.64
2023-05-26T19:59:13.413Z,61.46
2023-05-26T20:02:01.757Z,61.39
2023-05-26T20:04:49.583Z,61.72
2023-05-26T20:07:38.017Z,62.00
2023-05-26T20:10:25.746Z,61.40
2023-05-26T20:13:13.534Z,62.02
2023-05-26T20:16:01.382Z,62.44
2023-05-26T20:18:49.264Z,62.46
2023-05-26T20:21:37.500Z,62.33
2023-05-26T20:24:25.689Z,62.37
2023-05-26T20:27:13.497Z,62.78
2023-05-26T20:30:01.280Z,63.04
2023-05-26T20:32:49.111Z,63.57
2023-05-26T20:35:36.889Z,63.70
2023-05-26T20:38:24.676Z,64.11
2023-05-26T20:41:12.488Z,63.98
2023-05-26T20:44:00.431Z,64.25
2023-05-26T20:46:49.016Z,64.83
2023-05-26T20:49:36.785Z,65.06
2023-05-26T20:52:24.600Z,66.07
2023-05-26T20:55:12.478Z,66.40
2023-05-26T20:58:00.222Z,65.85
2023-05-26T21:00:48.799Z,66.01
2023-05-26T21:03:36.724Z,65.81
2023-05-26T21:06:24.636Z,66.67
2023-05-26T21:09:12.811Z,67.12
2023-05-26T21:12:00.593Z,67.36
2023-05-26T21:14:48.356Z,67.32
2023-05-26T21:17:36.778Z,67.56
2023-05-26T21:20:24.597Z,67.83
2023-05-26T21:23:14.902Z,68.45
2023-05-26T21:26:02.779Z,69.11
2023-05-26T21:28:50.682Z,69.15
2023-05-26T21:31:38.517Z,69.88
2023-05-26T21:34:26.338Z,69.64
2023-05-26T21:37:14.098Z,70.41
2023-05-26T21:40:01.909Z,70.10
2023-05-26T21:42:49.687Z,70.53
2023-05-26T21:45:37.459Z,70.70
2023-05-26T21:48:25.295Z,70.74
2023-05-26T21:51:13.067Z,70.62
2023-05-26T21:54:00.911Z,70.81
2023-05-26T21:56:48.606Z,70.86
2023-05-26T21:59:36.441Z,70.87
2023-05-26T22:02:24.311Z,70.48
2023-05-26T22:05:12.725Z,70.80
2023-05-26T22:08:00.689Z,70.64
2023-05-26T22:10:48.529Z,71.58
2023-05-26T22:13:36.743Z,71.52
2023-05-26T22:16:24.662Z,71.66
2023-05-26T22:19:13.174Z,71.32
2023-05-26T22:22:01.062Z,71.65
2023-05-26T22:24:48.895Z,71.36
2023-05-26T22:27:36.715Z,72.04
2023-05-26T22:30:25.944Z,72.00
2023-05-26T22:33:13.913Z,72.37
2023-05-26T22:36:01.685Z,72.71
2023-05-26T22:38:49.565Z,73.11
2023-05-26T22:41:37.348Z,72.83
2023-05-26T22:44:25.327Z,73.35
2023-05-26T22:47:13.216Z,72.94
2023-05-26T22:50:01.836Z,73.56
2023-05-26T22:52:49.595Z,73.93
2023-05-26T22:55:45.511Z,73.93
2023-05-26T22:58:39.735Z,73.76
2023-05-26T23:01:28.425Z,73.70
2023-05-26T23:04:16.371Z,73.99
2023-05-26T23:07:04.446Z,74.45
2023-05-26T23:09:52.264Z,74.23
2023-05-26T23:12:40.807Z,74.36
2023-05-26T23:15:31.534Z,74.71
2023-05-26T23:18:19.451Z,75.14
2023-05-26T23:21:07.236Z,75.46
2023-05-26T23:23:55.099Z,75.73
2023-05-26T23:26:42.842Z,75.61
2023-05-26T23:29:30.652Z,75.57
2023-05-26T23:32:18.438Z,76.30
2023-05-26T23:35:07.086Z,76.12
2023-05-26T23:37:54.810Z,76.60
2023-05-26T23:40:42.791Z,77.68
2023-05-26T23:43:31.189Z,77.14
2023-05-26T23:46:19.014Z,77.17
2023-05-26T23:49:07.190Z,77.68
2023-05-26T23:51:55.026Z,77.80
2023-05-26T23:54:42.883Z,78.20
2023-05-26T23:57:30.664Z,77.93
